sensor_id;sensor_type;location;lat;lon;timestamp;temperature;humidity
1996;DHT22;38556;47.068;15.408;2023-02-16T00:01:22;2.60;99.90
1996;DHT22;38556;47.068;15.408;2023-02-16T00:03:51;2.60;99.90
1996;DHT22;38556;47.068;15.408;2023-02-16T00:06:18;2.60;99.90
1996;DHT22;38556;47.068;15.408;2023-02-16T00:08:47;2.60;99.90
1996;DHT22;38556;47.068;15.408;2023-02-16T00:11:22;2.50;99.90
1996;DHT22;38556;47.068;15.408;2023-02-16T00:14:09;2.50;99.90
1996;DHT22;38556;47.068;15.408;2023-02-16T00:19:19;2.40;99.90
1996;DHT22;38556;47.068;15.408;2023-02-16T00:21:48;2.40;99.90
1996;DHT22;38556;47.068;15.408;2023-02-16T00:24:15;2.30;99.90
1996;DHT22;38556;47.068;15.408;2023-02-16T00:26:45;2.30;99.90
1996;DHT22;38556;47.068;15.408;2023-02-16T00:29:19;2.30;99.90
1996;DHT22;38556;47.068;15.408;2023-02-16T00:31:47;2.40;99.90
1996;DHT22;38556;47.068;15.408;2023-02-16T00:34:30;2.40;99.90
1996;DHT22;38556;47.068;15.408;2023-02-16T00:36:59;2.40;99.90
1996;DHT22;38556;47.068;15.408;2023-02-16T00:39:26;2.40;99.90
1996;DHT22;38556;47.068;15.408;2023-02-16T00:41:59;2.40;99.90
1996;DHT22;38556;47.068;15.408;2023-02-16T00:44:31;2.30;99.90
1996;DHT22;38556;47.068;15.408;2023-02-16T00:47:01;2.20;99.90
1996;DHT22;38556;47.068;15.408;2023-02-16T00:49:29;2.20;99.90
1996;DHT22;38556;47.068;15.408;2023-02-16T00:51:57;2.20;99.90
1996;DHT22;38556;47.068;15.408;2023-02-16T00:54:24;2.20;99.90
1996;DHT22;38556;47.068;15.408;2023-02-16T00:56:52;2.20;99.90
1996;DHT22;38556;47.068;15.408;2023-02-16T00:59:21;0.60;99.90
1996;DHT22;38556;47.068;15.408;2023-02-16T01:01:48;2.10;99.90
1996;DHT22;38556;47.068;15.408;2023-02-16T01:04:19;2.20;99.90
1996;DHT22;38556;47.068;15.408;2023-02-16T01:06:47;2.10;99.90
1996;DHT22;38556;47.068;15.408;2023-02-16T01:09:32;2.10;99.90
1996;DHT22;38556;47.068;15.408;2023-02-16T01:12:18;2.00;99.90
1996;DHT22;38556;47.068;15.408;2023-02-16T01:14:51;1.90;99.90
1996;DHT22;38556;47.068;15.408;2023-02-16T01:17:18;1.80;99.90
1996;DHT22;38556;47.068;15.408;2023-02-16T01:19:46;1.70;99.90
1996;DHT22;38556;47.068;15.408;2023-02-16T01:22:13;1.70;99.90
1996;DHT22;38556;47.068;15.408;2023-02-16T01:24:40;1.70;99.90
1996;DHT22;38556;47.068;15.408;2023-02-16T01:27:09;1.80;99.90
1996;DHT22;38556;47.068;15.408;2023-02-16T01:29:37;1.80;99.90
1996;DHT22;38556;47.068;15.408;2023-02-16T01:32:06;1.70;99.90
1996;DHT22;38556;47.068;15.408;2023-02-16T01:34:34;1.70;99.90
1996;DHT22;38556;47.068;15.408;2023-02-16T01:37:01;1.80;99.90
1996;DHT22;38556;47.068;15.408;2023-02-16T01:39:28;1.80;99.90
1996;DHT22;38556;47.068;15.408;2023-02-16T01:44:35;1.80;99.90
1996;DHT22;38556;47.068;15.408;2023-02-16T01:47:10;1.80;99.90
1996;DHT22;38556;47.068;15.408;2023-02-16T01:49:38;1.70;99.90
1996;DHT22;38556;47.068;15.408;2023-02-16T01:52:11;1.60;99.90
1996;DHT22;38556;47.068;15.408;2023-02-16T01:54:43;1.60;99.90
1996;DHT22;38556;47.068;15.408;2023-02-16T01:57:25;1.30;99.90
1996;DHT22;38556;47.068;15.408;2023-02-16T02:00:05;1.30;99.90
1996;DHT22;38556;47.068;15.408;2023-02-16T02:02:38;1.30;99.90
1996;DHT22;38556;47.068;15.408;2023-02-16T02:05:17;1.40;99.90
1996;DHT22;38556;47.068;15.408;2023-02-16T02:10:34;1.50;99.90
1996;DHT22;38556;47.068;15.408;2023-02-16T02:13:09;1.50;99.90
1996;DHT22;38556;47.068;15.408;2023-02-16T02:15:38;1.50;99.90
1996;DHT22;38556;47.068;15.408;2023-02-16T02:18:07;1.50;99.90
1996;DHT22;38556;47.068;15.408;2023-02-16T02:20:43;1.50;99.90
1996;DHT22;38556;47.068;15.408;2023-02-16T02:23:44;1.60;99.90
1996;DHT22;38556;47.068;15.408;2023-02-16T02:26:51;1.60;99.90
1996;DHT22;38556;47.068;15.408;2023-02-16T02:29:43;1.60;99.90
1996;DHT22;38556;47.068;15.408;2023-02-16T02:32:21;1.60;99.90
1996;DHT22;38556;47.068;15.408;2023-02-16T02:35:10;1.50;99.90
1996;DHT22;38556;47.068;15.408;2023-02-16T02:37:47;1.40;99.90
1996;DHT22;38556;47.068;15.408;2023-02-16T02:40:23;1.40;99.90
1996;DHT22;38556;47.068;15.408;2023-02-16T02:43:02;1.30;99.90
1996;DHT22;38556;47.068;15.408;2023-02-16T02:45:35;1.30;99.90
1996;DHT22;38556;47.068;15.408;2023-02-16T02:50:45;1.30;99.90
1996;DHT22;38556;47.068;15.408;2023-02-16T02:53:28;1.40;99.90
1996;DHT22;38556;47.068;15.408;2023-02-16T02:55:58;1.40;99.90
1996;DHT22;38556;47.068;15.408;2023-02-16T02:58:48;1.30;99.90
1996;DHT22;38556;47.068;15.408;2023-02-16T03:01:35;1.10;99.90
1996;DHT22;38556;47.068;15.408;2023-02-16T03:04:05;1.10;99.90
1996;DHT22;38556;47.068;15.408;2023-02-16T03:06:36;1.10;99.90
1996;DHT22;38556;47.068;15.408;2023-02-16T03:09:07;1.20;99.90
1996;DHT22;38556;47.068;15.408;2023-02-16T03:11:36;1.20;99.90
1996;DHT22;38556;47.068;15.408;2023-02-16T03:14:26;1.30;99.90
1996;DHT22;38556;47.068;15.408;2023-02-16T03:16:57;1.30;99.90
1996;DHT22;38556;47.068;15.408;2023-02-16T03:19:45;1.10;99.90
1996;DHT22;38556;47.068;15.408;2023-02-16T03:22:31;1.10;99.90
1996;DHT22;38556;47.068;15.408;2023-02-16T03:25:18;1.10;99.90
1996;DHT22;38556;47.068;15.408;2023-02-16T03:28:05;1.00;99.90
1996;DHT22;38556;47.068;15.408;2023-02-16T03:30:54;1.10;99.90
1996;DHT22;38556;47.068;15.408;2023-02-16T03:33:23;1.10;99.90
1996;DHT22;38556;47.068;15.408;2023-02-16T03:35:52;1.10;99.90
1996;DHT22;38556;47.068;15.408;2023-02-16T03:38:20;1.20;99.90
1996;DHT22;38556;47.068;15.408;2023-02-16T03:40:48;1.20;99.90
1996;DHT22;38556;47.068;15.408;2023-02-16T03:43:16;1.20;99.90
1996;DHT22;38556;47.068;15.408;2023-02-16T03:45:44;1.00;99.90
1996;DHT22;38556;47.068;15.408;2023-02-16T03:48:13;0.90;99.90
1996;DHT22;38556;47.068;15.408;2023-02-16T03:50:40;1.00;99.90
1996;DHT22;38556;47.068;15.408;2023-02-16T03:53:08;1.00;99.90
1996;DHT22;38556;47.068;15.408;2023-02-16T03:55:37;0.90;99.90
1996;DHT22;38556;47.068;15.408;2023-02-16T03:58:06;0.90;99.90
1996;DHT22;38556;47.068;15.408;2023-02-16T04:00:35;0.80;99.90
1996;DHT22;38556;47.068;15.408;2023-02-16T04:03:03;0.70;99.90
1996;DHT22;38556;47.068;15.408;2023-02-16T04:05:32;0.70;99.90
1996;DHT22;38556;47.068;15.408;2023-02-16T04:08:00;0.80;99.90
1996;DHT22;38556;47.068;15.408;2023-02-16T04:10:27;0.80;99.90
1996;DHT22;38556;47.068;15.408;2023-02-16T04:15:23;1.00;99.90
1996;DHT22;38556;47.068;15.408;2023-02-16T04:17:51;1.00;99.90
1996;DHT22;38556;47.068;15.408;2023-02-16T04:20:21;1.00;99.90
1996;DHT22;38556;47.068;15.408;2023-02-16T04:22:51;1.10;99.90
1996;DHT22;38556;47.068;15.408;2023-02-16T04:25:19;1.10;99.90
1996;DHT22;38556;47.068;15.408;2023-02-16T04:27:46;1.10;99.90
1996;DHT22;38556;47.068;15.408;2023-02-16T04:30:16;1.20;99.90
1996;DHT22;38556;47.068;15.408;2023-02-16T04:32:43;1.20;99.90
1996;DHT22;38556;47.068;15.408;2023-02-16T04:35:11;1.10;99.90
1996;DHT22;38556;47.068;15.408;2023-02-16T04:37:39;1.10;99.90
1996;DHT22;38556;47.068;15.408;2023-02-16T04:40:09;1.10;99.90
1996;DHT22;38556;47.068;15.408;2023-02-16T04:42:38;1.10;99.90
1996;DHT22;38556;47.068;15.408;2023-02-16T04:45:07;1.20;99.90
1996;DHT22;38556;47.068;15.408;2023-02-16T04:47:34;1.10;99.90
1996;DHT22;38556;47.068;15.408;2023-02-16T04:50:02;1.10;99.90
1996;DHT22;38556;47.068;15.408;2023-02-16T04:52:29;1.20;99.90
1996;DHT22;38556;47.068;15.408;2023-02-16T04:54:56;1.10;99.90
1996;DHT22;38556;47.068;15.408;2023-02-16T04:57:26;1.10;99.90
1996;DHT22;38556;47.068;15.408;2023-02-16T04:59:53;1.00;99.90
1996;DHT22;38556;47.068;15.408;2023-02-16T05:02:20;1.00;99.90
1996;DHT22;38556;47.068;15.408;2023-02-16T05:04:48;1.00;99.90
1996;DHT22;38556;47.068;15.408;2023-02-16T05:07:15;1.00;99.90
1996;DHT22;38556;47.068;15.408;2023-02-16T05:09:42;1.00;99.90
1996;DHT22;38556;47.068;15.408;2023-02-16T05:12:10;1.00;99.90
1996;DHT22;38556;47.068;15.408;2023-02-16T05:14:56;1.00;99.90
1996;DHT22;38556;47.068;15.408;2023-02-16T05:17:25;1.10;99.90
1996;DHT22;38556;47.068;15.408;2023-02-16T05:19:54;1.10;99.90
1996;DHT22;38556;47.068;15.408;2023-02-16T05:22:22;1.00;99.90
1996;DHT22;38556;47.068;15.408;2023-02-16T05:24:50;1.00;99.90
1996;DHT22;38556;47.068;15.408;2023-02-16T05:27:19;1.00;99.90
1996;DHT22;38556;47.068;15.408;2023-02-16T05:29:47;1.10;99.90
1996;DHT22;38556;47.068;15.408;2023-02-16T05:32:16;1.10;99.90
1996;DHT22;38556;47.068;15.408;2023-02-16T05:34:43;1.10;99.90
1996;DHT22;38556;47.068;15.408;2023-02-16T05:37:12;1.10;99.90
1996;DHT22;38556;47.068;15.408;2023-02-16T05:39:39;1.10;99.90
1996;DHT22;38556;47.068;15.408;2023-02-16T05:42:07;1.10;99.90
1996;DHT22;38556;47.068;15.408;2023-02-16T05:44:35;1.10;99.90
1996;DHT22;38556;47.068;15.408;2023-02-16T05:47:02;0.90;99.90
1996;DHT22;38556;47.068;15.408;2023-02-16T05:49:31;1.10;99.90
1996;DHT22;38556;47.068;15.408;2023-02-16T05:51:58;1.00;99.90
1996;DHT22;38556;47.068;15.408;2023-02-16T05:54:25;1.00;99.90
1996;DHT22;38556;47.068;15.408;2023-02-16T05:56:53;1.00;99.90
1996;DHT22;38556;47.068;15.408;2023-02-16T05:59:20;0.90;99.90
1996;DHT22;38556;47.068;15.408;2023-02-16T06:01:48;1.00;99.90
1996;DHT22;38556;47.068;15.408;2023-02-16T06:04:15;1.00;99.90
1996;DHT22;38556;47.068;15.408;2023-02-16T06:06:43;1.00;99.90
1996;DHT22;38556;47.068;15.408;2023-02-16T06:09:11;1.00;99.90
1996;DHT22;38556;47.068;15.408;2023-02-16T06:11:38;1.00;99.90
1996;DHT22;38556;47.068;15.408;2023-02-16T06:14:07;1.00;99.90
1996;DHT22;38556;47.068;15.408;2023-02-16T06:19:04;1.00;99.90
1996;DHT22;38556;47.068;15.408;2023-02-16T06:21:32;1.00;99.90
1996;DHT22;38556;47.068;15.408;2023-02-16T06:24:01;1.00;99.90
1996;DHT22;38556;47.068;15.408;2023-02-16T06:26:28;0.90;99.90
1996;DHT22;38556;47.068;15.408;2023-02-16T06:28:55;0.90;99.90
1996;DHT22;38556;47.068;15.408;2023-02-16T06:31:23;1.00;99.90
1996;DHT22;38556;47.068;15.408;2023-02-16T06:33:51;1.00;99.90
1996;DHT22;38556;47.068;15.408;2023-02-16T06:36:19;1.00;99.90
1996;DHT22;38556;47.068;15.408;2023-02-16T06:38:47;1.00;99.90
1996;DHT22;38556;47.068;15.408;2023-02-16T06:41:16;1.10;99.90
1996;DHT22;38556;47.068;15.408;2023-02-16T06:43:57;1.20;99.90
1996;DHT22;38556;47.068;15.408;2023-02-16T06:46:24;1.20;99.90
1996;DHT22;38556;47.068;15.408;2023-02-16T06:48:51;1.20;99.90
1996;DHT22;38556;47.068;15.408;2023-02-16T06:51:19;1.30;99.90
1996;DHT22;38556;47.068;15.408;2023-02-16T06:53:47;1.30;99.90
1996;DHT22;38556;47.068;15.408;2023-02-16T06:56:15;1.30;99.90
1996;DHT22;38556;47.068;15.408;2023-02-16T06:58:43;1.20;99.90
1996;DHT22;38556;47.068;15.408;2023-02-16T07:01:10;1.20;99.90
1996;DHT22;38556;47.068;15.408;2023-02-16T07:03:38;1.30;99.90
1996;DHT22;38556;47.068;15.408;2023-02-16T07:06:05;1.30;99.90
1996;DHT22;38556;47.068;15.408;2023-02-16T07:08:33;1.40;99.90
1996;DHT22;38556;47.068;15.408;2023-02-16T07:11:00;1.30;99.90
1996;DHT22;38556;47.068;15.408;2023-02-16T07:13:29;1.50;99.90
1996;DHT22;38556;47.068;15.408;2023-02-16T07:15:56;1.50;99.90
1996;DHT22;38556;47.068;15.408;2023-02-16T07:18:23;1.50;99.90
1996;DHT22;38556;47.068;15.408;2023-02-16T07:20:50;1.60;99.90
1996;DHT22;38556;47.068;15.408;2023-02-16T07:23:18;1.70;99.90
1996;DHT22;38556;47.068;15.408;2023-02-16T07:25:46;1.80;99.90
1996;DHT22;38556;47.068;15.408;2023-02-16T07:28:14;1.80;99.90
1996;DHT22;38556;47.068;15.408;2023-02-16T07:30:42;1.90;99.90
1996;DHT22;38556;47.068;15.408;2023-02-16T07:33:10;2.00;99.90
1996;DHT22;38556;47.068;15.408;2023-02-16T07:35:37;2.00;99.90
1996;DHT22;38556;47.068;15.408;2023-02-16T07:38:05;2.10;99.90
1996;DHT22;38556;47.068;15.408;2023-02-16T07:40:33;2.60;99.90
1996;DHT22;38556;47.068;15.408;2023-02-16T07:43:00;2.30;99.90
1996;DHT22;38556;47.068;15.408;2023-02-16T07:45:28;2.40;99.90
1996;DHT22;38556;47.068;15.408;2023-02-16T07:47:59;2.40;99.90
1996;DHT22;38556;47.068;15.408;2023-02-16T07:50:26;2.50;99.90
1996;DHT22;38556;47.068;15.408;2023-02-16T07:52:54;2.50;99.90
1996;DHT22;38556;47.068;15.408;2023-02-16T07:55:21;2.50;99.90
1996;DHT22;38556;47.068;15.408;2023-02-16T07:57:49;2.70;99.90
1996;DHT22;38556;47.068;15.408;2023-02-16T08:00:20;-0.20;99.90
1996;DHT22;38556;47.068;15.408;2023-02-16T08:02:48;2.80;99.90
1996;DHT22;38556;47.068;15.408;2023-02-16T08:05:17;2.90;99.90
1996;DHT22;38556;47.068;15.408;2023-02-16T08:07:45;3.00;99.90
1996;DHT22;38556;47.068;15.408;2023-02-16T08:10:13;3.10;99.90
1996;DHT22;38556;47.068;15.408;2023-02-16T08:12:41;3.40;99.90
1996;DHT22;38556;47.068;15.408;2023-02-16T08:15:09;3.10;99.90
1996;DHT22;38556;47.068;15.408;2023-02-16T08:17:36;3.20;99.90
1996;DHT22;38556;47.068;15.408;2023-02-16T08:20:06;3.30;99.90
1996;DHT22;38556;47.068;15.408;2023-02-16T08:22:35;3.30;99.90
1996;DHT22;38556;47.068;15.408;2023-02-16T08:25:03;3.50;99.90
1996;DHT22;38556;47.068;15.408;2023-02-16T08:27:30;3.60;99.90
1996;DHT22;38556;47.068;15.408;2023-02-16T08:29:59;3.60;99.90
1996;DHT22;38556;47.068;15.408;2023-02-16T08:32:26;3.70;99.90
1996;DHT22;38556;47.068;15.408;2023-02-16T08:34:54;3.80;99.90
1996;DHT22;38556;47.068;15.408;2023-02-16T08:37:22;3.70;99.90
1996;DHT22;38556;47.068;15.408;2023-02-16T08:39:51;3.80;99.90
1996;DHT22;38556;47.068;15.408;2023-02-16T08:42:18;3.90;99.90
1996;DHT22;38556;47.068;15.408;2023-02-16T08:44:46;4.00;99.90
1996;DHT22;38556;47.068;15.408;2023-02-16T08:47:13;3.80;99.90
1996;DHT22;38556;47.068;15.408;2023-02-16T08:49:42;4.00;99.90
1996;DHT22;38556;47.068;15.408;2023-02-16T08:52:10;4.00;99.90
1996;DHT22;38556;47.068;15.408;2023-02-16T08:54:38;4.10;99.90
1996;DHT22;38556;47.068;15.408;2023-02-16T08:57:07;4.00;99.90
1996;DHT22;38556;47.068;15.408;2023-02-16T08:59:35;4.10;99.90
1996;DHT22;38556;47.068;15.408;2023-02-16T09:02:02;4.20;99.90
1996;DHT22;38556;47.068;15.408;2023-02-16T09:04:30;4.20;99.90
1996;DHT22;38556;47.068;15.408;2023-02-16T09:06:57;4.20;99.90
1996;DHT22;38556;47.068;15.408;2023-02-16T09:09:25;4.20;99.90
1996;DHT22;38556;47.068;15.408;2023-02-16T09:11:53;4.50;99.90
1996;DHT22;38556;47.068;15.408;2023-02-16T09:14:23;4.50;99.90
1996;DHT22;38556;47.068;15.408;2023-02-16T09:16:51;4.50;99.90
1996;DHT22;38556;47.068;15.408;2023-02-16T09:19:19;4.50;99.90
1996;DHT22;38556;47.068;15.408;2023-02-16T09:21:48;4.60;99.90
1996;DHT22;38556;47.068;15.408;2023-02-16T09:24:17;4.70;99.90
1996;DHT22;38556;47.068;15.408;2023-02-16T09:26:44;4.80;99.90
1996;DHT22;38556;47.068;15.408;2023-02-16T09:29:12;4.80;99.90
1996;DHT22;38556;47.068;15.408;2023-02-16T09:31:41;5.20;99.90
1996;DHT22;38556;47.068;15.408;2023-02-16T09:34:15;5.20;99.90
1996;DHT22;38556;47.068;15.408;2023-02-16T09:36:43;5.40;99.90
1996;DHT22;38556;47.068;15.408;2023-02-16T09:39:10;5.50;99.90
1996;DHT22;38556;47.068;15.408;2023-02-16T09:41:50;5.60;99.90
1996;DHT22;38556;47.068;15.408;2023-02-16T09:44:26;5.70;99.50
1996;DHT22;38556;47.068;15.408;2023-02-16T09:47:02;5.90;99.40
1996;DHT22;38556;47.068;15.408;2023-02-16T09:49:34;5.90;99.50
1996;DHT22;38556;47.068;15.408;2023-02-16T09:52:08;5.80;98.80
1996;DHT22;38556;47.068;15.408;2023-02-16T09:54:41;5.80;98.80
1996;DHT22;38556;47.068;15.408;2023-02-16T09:57:18;6.00;98.60
1996;DHT22;38556;47.068;15.408;2023-02-16T09:59:51;6.00;98.60
1996;DHT22;38556;47.068;15.408;2023-02-16T10:02:32;6.00;99.10
1996;DHT22;38556;47.068;15.408;2023-02-16T10:05:18;6.00;98.30
1996;DHT22;38556;47.068;15.408;2023-02-16T10:07:58;6.10;98.20
1996;DHT22;38556;47.068;15.408;2023-02-16T10:10:34;6.20;98.10
1996;DHT22;38556;47.068;15.408;2023-02-16T10:13:10;6.30;98.10
1996;DHT22;38556;47.068;15.408;2023-02-16T10:15:43;6.40;98.10
1996;DHT22;38556;47.068;15.408;2023-02-16T10:18:19;6.40;97.90
1996;DHT22;38556;47.068;15.408;2023-02-16T10:20:51;6.50;98.30
1996;DHT22;38556;47.068;15.408;2023-02-16T10:23:30;6.60;97.80
1996;DHT22;38556;47.068;15.408;2023-02-16T10:26:01;6.60;97.70
1996;DHT22;38556;47.068;15.408;2023-02-16T10:28:36;6.60;97.70
1996;DHT22;38556;47.068;15.408;2023-02-16T10:31:12;6.80;98.00
1996;DHT22;38556;47.068;15.408;2023-02-16T10:33:45;6.70;97.80
1996;DHT22;38556;47.068;15.408;2023-02-16T10:36:40;6.80;97.90
1996;DHT22;38556;47.068;15.408;2023-02-16T10:39:16;6.90;97.70
1996;DHT22;38556;47.068;15.408;2023-02-16T10:41:48;6.90;97.60
1996;DHT22;38556;47.068;15.408;2023-02-16T10:44:21;7.00;97.50
1996;DHT22;38556;47.068;15.408;2023-02-16T10:46:55;7.00;97.40
1996;DHT22;38556;47.068;15.408;2023-02-16T10:49:26;7.00;97.10
1996;DHT22;38556;47.068;15.408;2023-02-16T10:51:55;7.10;96.60
1996;DHT22;38556;47.068;15.408;2023-02-16T10:54:26;7.20;96.40
1996;DHT22;38556;47.068;15.408;2023-02-16T10:59:29;7.30;95.60
1996;DHT22;38556;47.068;15.408;2023-02-16T11:01:58;7.40;95.30
1996;DHT22;38556;47.068;15.408;2023-02-16T11:04:36;7.50;95.20
1996;DHT22;38556;47.068;15.408;2023-02-16T11:07:07;7.60;95.50
1996;DHT22;38556;47.068;15.408;2023-02-16T11:09:36;7.50;95.70
1996;DHT22;38556;47.068;15.408;2023-02-16T11:12:14;7.80;95.70
1996;DHT22;38556;47.068;15.408;2023-02-16T11:14:48;7.80;96.00
1996;DHT22;38556;47.068;15.408;2023-02-16T11:17:17;7.90;95.20
1996;DHT22;38556;47.068;15.408;2023-02-16T11:19:53;8.00;95.30
1996;DHT22;38556;47.068;15.408;2023-02-16T11:22:30;8.10;95.20
1996;DHT22;38556;47.068;15.408;2023-02-16T11:25:20;8.30;95.20
1996;DHT22;38556;47.068;15.408;2023-02-16T11:27:53;7.00;94.30
1996;DHT22;38556;47.068;15.408;2023-02-16T11:32:57;8.60;95.10
1996;DHT22;38556;47.068;15.408;2023-02-16T11:35:29;8.50;94.30
1996;DHT22;38556;47.068;15.408;2023-02-16T11:37:56;11.40;95.20
1996;DHT22;38556;47.068;15.408;2023-02-16T11:40:26;8.60;94.70
1996;DHT22;38556;47.068;15.408;2023-02-16T11:42:56;8.80;94.50
1996;DHT22;38556;47.068;15.408;2023-02-16T11:45:27;8.90;94.30
1996;DHT22;38556;47.068;15.408;2023-02-16T11:47:56;9.00;94.00
1996;DHT22;38556;47.068;15.408;2023-02-16T11:50:27;9.10;94.40
1996;DHT22;38556;47.068;15.408;2023-02-16T11:52:56;9.20;93.60
1996;DHT22;38556;47.068;15.408;2023-02-16T11:55:27;9.20;93.30
1996;DHT22;38556;47.068;15.408;2023-02-16T11:58:14;9.30;93.20
1996;DHT22;38556;47.068;15.408;2023-02-16T12:00:49;9.40;93.10
1996;DHT22;38556;47.068;15.408;2023-02-16T12:03:35;9.50;92.60
1996;DHT22;38556;47.068;15.408;2023-02-16T12:06:22;9.50;92.10
1996;DHT22;38556;47.068;15.408;2023-02-16T12:09:06;9.70;90.90
1996;DHT22;38556;47.068;15.408;2023-02-16T12:11:40;9.80;91.20
1996;DHT22;38556;47.068;15.408;2023-02-16T12:14:20;9.90;91.00
1996;DHT22;38556;47.068;15.408;2023-02-16T12:16:58;10.20;90.50
1996;DHT22;38556;47.068;15.408;2023-02-16T12:19:35;10.20;90.80
1996;DHT22;38556;47.068;15.408;2023-02-16T12:22:22;10.20;90.60
1996;DHT22;38556;47.068;15.408;2023-02-16T12:25:02;10.40;89.50
1996;DHT22;38556;47.068;15.408;2023-02-16T12:27:38;10.50;88.70
1996;DHT22;38556;47.068;15.408;2023-02-16T12:30:21;10.60;88.70
1996;DHT22;38556;47.068;15.408;2023-02-16T12:33:03;10.80;88.70
1996;DHT22;38556;47.068;15.408;2023-02-16T12:35:46;11.00;86.40
1996;DHT22;38556;47.068;15.408;2023-02-16T12:38:26;11.00;85.00
1996;DHT22;38556;47.068;15.408;2023-02-16T12:41:06;11.10;85.10
1996;DHT22;38556;47.068;15.408;2023-02-16T12:43:38;11.20;85.10
1996;DHT22;38556;47.068;15.408;2023-02-16T12:46:12;11.40;85.60
1996;DHT22;38556;47.068;15.408;2023-02-16T12:48:44;11.50;85.20
1996;DHT22;38556;47.068;15.408;2023-02-16T12:51:16;11.70;85.00
1996;DHT22;38556;47.068;15.408;2023-02-16T12:53:51;11.70;84.10
1996;DHT22;38556;47.068;15.408;2023-02-16T12:56:23;11.70;85.00
1996;DHT22;38556;47.068;15.408;2023-02-16T12:59:02;11.90;84.60
1996;DHT22;38556;47.068;15.408;2023-02-16T13:01:32;11.90;83.10
1996;DHT22;38556;47.068;15.408;2023-02-16T13:04:06;12.00;83.60
1996;DHT22;38556;47.068;15.408;2023-02-16T13:06:45;12.20;83.70
1996;DHT22;38556;47.068;15.408;2023-02-16T13:09:26;12.20;83.70
1996;DHT22;38556;47.068;15.408;2023-02-16T13:12:06;12.40;85.00
1996;DHT22;38556;47.068;15.408;2023-02-16T13:14:37;12.60;83.70
1996;DHT22;38556;47.068;15.408;2023-02-16T13:17:10;12.70;81.10
1996;DHT22;38556;47.068;15.408;2023-02-16T13:19:41;12.70;80.90
1996;DHT22;38556;47.068;15.408;2023-02-16T13:22:28;12.90;81.10
1996;DHT22;38556;47.068;15.408;2023-02-16T13:27:58;13.30;76.50
1996;DHT22;38556;47.068;15.408;2023-02-16T13:30:44;13.50;75.50
1996;DHT22;38556;47.068;15.408;2023-02-16T13:33:28;13.50;75.20
1996;DHT22;38556;47.068;15.408;2023-02-16T13:36:20;13.60;74.60
1996;DHT22;38556;47.068;15.408;2023-02-16T13:39:16;13.70;71.60
1996;DHT22;38556;47.068;15.408;2023-02-16T13:42:07;13.90;71.50
1996;DHT22;38556;47.068;15.408;2023-02-16T13:44:39;14.10;72.50
1996;DHT22;38556;47.068;15.408;2023-02-16T13:47:09;14.40;74.30
1996;DHT22;38556;47.068;15.408;2023-02-16T13:49:39;14.40;74.30
1996;DHT22;38556;47.068;15.408;2023-02-16T13:52:09;14.30;72.40
1996;DHT22;38556;47.068;15.408;2023-02-16T13:54:39;14.40;73.40
1996;DHT22;38556;47.068;15.408;2023-02-16T13:57:12;14.60;71.50
1996;DHT22;38556;47.068;15.408;2023-02-16T13:59:48;14.60;71.00
1996;DHT22;38556;47.068;15.408;2023-02-16T14:02:55;14.70;72.40
1996;DHT22;38556;47.068;15.408;2023-02-16T14:05:29;14.60;70.20
1996;DHT22;38556;47.068;15.408;2023-02-16T14:11:04;15.00;70.70
1996;DHT22;38556;47.068;15.408;2023-02-16T14:13:47;15.30;68.90
1996;DHT22;38556;47.068;15.408;2023-02-16T14:16:31;15.30;66.60
1996;DHT22;38556;47.068;15.408;2023-02-16T14:19:02;15.10;66.40
1996;DHT22;38556;47.068;15.408;2023-02-16T14:21:36;15.40;67.80
1996;DHT22;38556;47.068;15.408;2023-02-16T14:24:05;15.60;67.70
1996;DHT22;38556;47.068;15.408;2023-02-16T14:26:52;16.00;64.70
1996;DHT22;38556;47.068;15.408;2023-02-16T14:29:25;16.10;64.00
1996;DHT22;38556;47.068;15.408;2023-02-16T14:31:58;16.20;63.60
1996;DHT22;38556;47.068;15.408;2023-02-16T14:34:28;16.20;62.90
1996;DHT22;38556;47.068;15.408;2023-02-16T14:37:21;16.20;61.00
1996;DHT22;38556;47.068;15.408;2023-02-16T14:39:53;16.30;61.90
1996;DHT22;38556;47.068;15.408;2023-02-16T14:42:28;16.50;61.40
1996;DHT22;38556;47.068;15.408;2023-02-16T14:45:40;16.80;60.10
1996;DHT22;38556;47.068;15.408;2023-02-16T14:48:19;16.80;60.40
1996;DHT22;38556;47.068;15.408;2023-02-16T14:51:06;16.90;60.00
1996;DHT22;38556;47.068;15.408;2023-02-16T14:53:57;17.00;60.70
1996;DHT22;38556;47.068;15.408;2023-02-16T14:56:38;17.20;59.20
1996;DHT22;38556;47.068;15.408;2023-02-16T14:59:16;17.10;59.60
1996;DHT22;38556;47.068;15.408;2023-02-16T15:01:49;17.00;58.40
1996;DHT22;38556;47.068;15.408;2023-02-16T15:04:26;17.00;58.80
1996;DHT22;38556;47.068;15.408;2023-02-16T15:06:55;16.90;58.80
1996;DHT22;38556;47.068;15.408;2023-02-16T15:09:26;16.80;58.70
1996;DHT22;38556;47.068;15.408;2023-02-16T15:11:57;16.80;58.60
1996;DHT22;38556;47.068;15.408;2023-02-16T15:14:45;13.80;56.00
1996;DHT22;38556;47.068;15.408;2023-02-16T15:17:23;16.60;57.80
1996;DHT22;38556;47.068;15.408;2023-02-16T15:19:53;16.60;58.00
1996;DHT22;38556;47.068;15.408;2023-02-16T15:22:23;16.60;58.20
1996;DHT22;38556;47.068;15.408;2023-02-16T15:24:59;16.60;57.80
1996;DHT22;38556;47.068;15.408;2023-02-16T15:27:28;16.60;58.00
1996;DHT22;38556;47.068;15.408;2023-02-16T15:30:04;16.60;58.10
1996;DHT22;38556;47.068;15.408;2023-02-16T15:32:33;16.60;58.60
1996;DHT22;38556;47.068;15.408;2023-02-16T15:35:09;16.70;59.00
1996;DHT22;38556;47.068;15.408;2023-02-16T15:37:37;16.90;58.80
1996;DHT22;38556;47.068;15.408;2023-02-16T15:40:13;17.00;59.00
1996;DHT22;38556;47.068;15.408;2023-02-16T15:42:42;17.00;59.00
1996;DHT22;38556;47.068;15.408;2023-02-16T15:45:25;17.50;59.20
1996;DHT22;38556;47.068;15.408;2023-02-16T15:48:12;18.70;58.10
1996;DHT22;38556;47.068;15.408;2023-02-16T15:50:40;19.10;57.70
1996;DHT22;38556;47.068;15.408;2023-02-16T15:53:11;19.50;57.10
1996;DHT22;38556;47.068;15.408;2023-02-16T15:55:43;19.40;56.80
1996;DHT22;38556;47.068;15.408;2023-02-16T15:58:12;18.90;56.10
1996;DHT22;38556;47.068;15.408;2023-02-16T16:00:42;18.60;56.50
1996;DHT22;38556;47.068;15.408;2023-02-16T16:03:14;18.20;57.40
1996;DHT22;38556;47.068;15.408;2023-02-16T16:05:57;17.80;57.80
1996;DHT22;38556;47.068;15.408;2023-02-16T16:08:27;17.20;58.20
1996;DHT22;38556;47.068;15.408;2023-02-16T16:10:55;16.70;58.90
1996;DHT22;38556;47.068;15.408;2023-02-16T16:13:24;16.40;59.20
1996;DHT22;38556;47.068;15.408;2023-02-16T16:15:55;16.10;58.80
1996;DHT22;38556;47.068;15.408;2023-02-16T16:18:43;15.50;58.70
1996;DHT22;38556;47.068;15.408;2023-02-16T16:21:16;15.10;59.00
1996;DHT22;38556;47.068;15.408;2023-02-16T16:23:53;15.10;58.70
1996;DHT22;38556;47.068;15.408;2023-02-16T16:26:22;14.90;58.50
1996;DHT22;38556;47.068;15.408;2023-02-16T16:28:50;14.60;59.20
1996;DHT22;38556;47.068;15.408;2023-02-16T16:31:37;14.30;60.00
1996;DHT22;38556;47.068;15.408;2023-02-16T16:34:10;14.20;60.70
1996;DHT22;38556;47.068;15.408;2023-02-16T16:39:20;13.80;59.70
1996;DHT22;38556;47.068;15.408;2023-02-16T16:42:23;13.50;59.00
1996;DHT22;38556;47.068;15.408;2023-02-16T16:45:04;13.40;59.30
1996;DHT22;38556;47.068;15.408;2023-02-16T16:47:35;13.00;57.70